createdAt,value
2023-02-11T05:00:33.257Z,0.00
2023-02-11T05:01:33.232Z,0.00
2023-02-11T05:02:33.156Z,0.00
2023-02-11T05:03:33.146Z,0.00
2023-02-11T05:04:33.225Z,0.00
2023-02-11T05:05:33.134Z,0.00
2023-02-11T05:06:33.117Z,0.00
2023-02-11T05:07:33.106Z,0.00
2023-02-11T05:08:33.087Z,0.00
2023-02-11T05:09:33.082Z,0.00
2023-02-11T05:10:41.512Z,0.00
2023-02-11T05:11:38.080Z,0.00
2023-02-11T05:12:33.060Z,0.00
2023-02-11T05:13:33.049Z,0.00
2023-02-11T05:14:33.074Z,0.00
2023-02-11T05:15:33.026Z,0.00
2023-02-11T05:16:33.054Z,0.00
2023-02-11T05:17:32.999Z,0.00
2023-02-11T05:18:32.985Z,0.00
2023-02-11T05:19:32.971Z,0.00
2023-02-11T05:20:32.966Z,0.00
2023-02-11T05:21:32.942Z,0.00
2023-02-11T05:22:37.955Z,0.00
2023-02-11T05:23:32.989Z,0.00
2023-02-11T05:24:32.909Z,0.00
2023-02-11T05:25:32.911Z,0.00
2023-02-11T05:26:32.944Z,0.00
2023-02-11T05:27:32.878Z,0.00
2023-02-11T05:28:32.966Z,0.00
2023-02-11T05:29:32.871Z,0.00
2023-02-11T05:30:32.915Z,0.00
2023-02-11T05:31:32.835Z,0.00
2023-02-11T05:32:32.847Z,0.00
2023-02-11T05:33:37.834Z,0.00
2023-02-11T05:34:32.803Z,0.00
2023-02-11T05:35:32.806Z,0.00
2023-02-11T05:36:33.549Z,0.00
2023-02-11T05:37:32.812Z,0.00
2023-02-11T05:38:32.759Z,0.00
2023-02-11T05:39:32.853Z,0.00
2023-02-11T05:40:32.767Z,0.00
2023-02-11T05:41:33.035Z,0.00
2023-02-11T05:42:32.735Z,0.00
2023-02-11T05:43:32.698Z,0.00
2023-02-11T05:44:37.709Z,0.00
2023-02-11T05:45:32.676Z,0.00
2023-02-11T05:46:32.814Z,0.00
2023-02-11T05:47:32.654Z,0.00
2023-02-11T05:48:32.665Z,0.00
2023-02-11T05:49:32.631Z,0.00
2023-02-11T05:50:32.625Z,0.00
2023-02-11T05:51:32.632Z,0.00
2023-02-11T05:52:32.635Z,0.00
2023-02-11T05:53:32.608Z,0.00
2023-02-11T05:54:32.618Z,0.00
2023-02-11T05:55:37.702Z,0.00
2023-02-11T05:56:32.570Z,0.00
2023-02-11T05:57:32.678Z,0.00
2023-02-11T05:58:32.537Z,0.00
2023-02-11T05:59:32.539Z,0.00
2023-02-11T06:00:32.518Z,0.00
2023-02-11T06:01:32.521Z,0.00
2023-02-11T06:02:32.605Z,0.00
2023-02-11T06:03:32.538Z,0.00
2023-02-11T06:04:32.484Z,0.00
2023-02-11T06:05:32.461Z,0.00
2023-02-11T06:06:37.501Z,0.00
2023-02-11T06:07:32.437Z,0.00
2023-02-11T06:08:32.429Z,0.00
2023-02-11T06:09:32.425Z,0.00
2023-02-11T06:10:32.404Z,0.00
2023-02-11T06:11:32.418Z,0.00
2023-02-11T06:12:32.387Z,0.00
2023-02-11T06:13:32.367Z,0.00
2023-02-11T06:14:32.358Z,0.00
2023-02-11T06:15:32.345Z,0.00
2023-02-11T06:16:32.527Z,0.00
2023-02-11T06:17:37.352Z,4.00
2023-02-11T06:18:32.320Z,4.00
2023-02-11T06:19:32.306Z,0.00
2023-02-11T06:20:32.327Z,4.00
2023-02-11T06:21:43.277Z,8.00
2023-02-11T06:22:34.853Z,4.00
2023-02-11T06:23:32.263Z,4.00
2023-02-11T06:24:58.606Z,8.00
2023-02-11T06:25:33.235Z,12.00
2023-02-11T06:26:32.246Z,12.00
2023-02-11T06:27:32.224Z,12.00
2023-02-11T06:28:38.763Z,16.00
2023-02-11T06:29:32.188Z,20.00
2023-02-11T06:30:32.256Z,20.00
2023-02-11T06:31:32.284Z,28.00
2023-02-11T06:32:44.370Z,32.00
2023-02-11T06:33:33.212Z,36.00
2023-02-11T06:34:32.142Z,44.00
2023-02-11T06:35:32.126Z,48.00
2023-02-11T06:36:32.131Z,56.00
2023-02-11T06:37:32.110Z,64.00
2023-02-11T06:38:32.110Z,72.00
2023-02-11T06:39:37.114Z,80.00
2023-02-11T06:40:32.068Z,84.00
2023-02-11T06:41:32.064Z,92.00
2023-02-11T06:42:32.057Z,104.00
2023-02-11T06:43:32.062Z,116.00
2023-02-11T06:44:32.027Z,132.00
2023-02-11T06:45:32.037Z,144.00
2023-02-11T06:46:32.111Z,156.00
2023-02-11T06:47:32.036Z,172.00
2023-02-11T06:48:31.989Z,188.00
2023-02-11T06:49:31.973Z,208.00
2023-02-11T06:50:37.059Z,220.00
2023-02-11T06:51:31.949Z,240.00
2023-02-11T06:52:31.976Z,256.00
2023-02-11T06:53:31.948Z,272.00
2023-02-11T06:54:31.965Z,292.00
2023-02-11T06:55:31.903Z,308.00
2023-02-11T06:56:31.906Z,328.00
2023-02-11T06:57:31.895Z,344.00
2023-02-11T06:58:31.912Z,360.00
2023-02-11T06:59:31.864Z,376.00
2023-02-11T07:00:31.860Z,392.00
2023-02-11T07:01:36.919Z,416.00
2023-02-11T07:02:31.861Z,436.00
2023-02-11T07:03:31.819Z,460.00
2023-02-11T07:04:31.807Z,480.00
2023-02-11T07:05:31.808Z,492.00
2023-02-11T07:06:31.792Z,508.00
2023-02-11T07:07:34.004Z,528.00
2023-02-11T07:08:31.779Z,548.00
2023-02-11T07:09:31.748Z,580.00
2023-02-11T07:10:31.737Z,612.00
2023-02-11T07:11:31.738Z,648.00
2023-02-11T07:12:36.752Z,672.00
2023-02-11T07:13:31.705Z,708.00
2023-02-11T07:14:31.741Z,744.00
2023-02-11T07:15:31.684Z,792.00
2023-02-11T07:16:31.713Z,824.00
2023-02-11T07:17:31.723Z,832.00
2023-02-11T07:18:31.668Z,844.00
2023-02-11T07:19:31.644Z,868.00
2023-02-11T07:20:31.629Z,924.00
2023-02-11T07:21:31.643Z,988.00
2023-02-11T07:22:31.629Z,1036.00
2023-02-11T07:23:36.633Z,1084.00
2023-02-11T07:24:31.582Z,1108.00
2023-02-11T07:25:31.601Z,1148.00
2023-02-11T07:26:31.624Z,1192.00
2023-02-11T07:27:31.561Z,1236.00
2023-02-11T07:28:31.621Z,1284.00
2023-02-11T07:29:31.528Z,1324.00
2023-02-11T07:30:31.522Z,1352.00
2023-02-11T07:31:31.733Z,1360.00
2023-02-11T07:32:31.502Z,1316.00
2023-02-11T07:33:31.482Z,1292.00
2023-02-11T07:34:36.507Z,1256.00
2023-02-11T07:35:31.462Z,1232.00
2023-02-11T07:36:31.449Z,1220.00
2023-02-11T07:37:31.449Z,1208.00
2023-02-11T07:38:31.439Z,1200.00
2023-02-11T07:39:31.457Z,1180.00
2023-02-11T07:40:31.414Z,1196.00
2023-02-11T07:41:31.414Z,1224.00
2023-02-11T07:42:31.419Z,1260.00
2023-02-11T07:43:31.378Z,1304.00
2023-02-11T07:44:31.373Z,1340.00
2023-02-11T07:45:36.374Z,1392.00
2023-02-11T07:46:31.377Z,1448.00
2023-02-11T07:47:31.339Z,1532.00
2023-02-11T07:48:31.321Z,1636.00
2023-02-11T07:49:31.304Z,1772.00
2023-02-11T07:50:31.312Z,1844.00
2023-02-11T07:51:31.286Z,1884.00
2023-02-11T07:52:31.304Z,1992.00
2023-02-11T07:53:31.306Z,2012.00
2023-02-11T07:54:31.249Z,2064.00
2023-02-11T07:55:31.272Z,2120.00
2023-02-11T07:56:36.248Z,2160.00
2023-02-11T07:57:31.225Z,2196.00
2023-02-11T07:58:31.207Z,2240.00
2023-02-11T07:59:31.197Z,2288.00
2023-02-11T08:00:31.209Z,2308.00
2023-02-11T08:01:31.204Z,2344.00
2023-02-11T08:02:31.258Z,2400.00
2023-02-11T08:03:31.156Z,2452.00
2023-02-11T08:04:31.164Z,2488.00
2023-02-11T08:05:31.163Z,2524.00
2023-02-11T08:06:31.119Z,2584.00
2023-02-11T08:07:36.167Z,2612.00
2023-02-11T08:08:31.101Z,2612.00
2023-02-11T08:09:33.455Z,2636.00
2023-02-11T08:10:31.094Z,2664.00
2023-02-11T08:11:31.083Z,2676.00
2023-02-11T08:12:31.068Z,2656.00
2023-02-11T08:13:31.036Z,2652.00
2023-02-11T08:14:31.024Z,2672.00
2023-02-11T08:15:31.014Z,2720.00
2023-02-11T08:16:31.072Z,2744.00
2023-02-11T08:17:31.007Z,2792.00
2023-02-11T08:18:36.014Z,2872.00
2023-02-11T08:19:32.910Z,2948.00
2023-02-11T08:20:30.960Z,3000.00
2023-02-11T08:21:30.954Z,3056.00
2023-02-11T08:22:30.952Z,3128.00
2023-02-11T08:23:30.924Z,3212.00
2023-02-11T08:24:30.912Z,3280.00
2023-02-11T08:25:30.916Z,3368.00
2023-02-11T08:26:30.896Z,3524.00
2023-02-11T08:27:30.906Z,3676.00
2023-02-11T08:28:31.045Z,3788.00
2023-02-11T08:29:35.927Z,3884.00
2023-02-11T08:30:30.859Z,3936.00
2023-02-11T08:31:31.076Z,3940.00
2023-02-11T08:32:30.822Z,3944.00
2023-02-11T08:33:30.822Z,3968.00
2023-02-11T08:34:30.798Z,3900.00
2023-02-11T08:35:30.788Z,3848.00
2023-02-11T08:36:30.775Z,3876.00
2023-02-11T08:37:33.011Z,3888.00
2023-02-11T08:38:30.763Z,3876.00
2023-02-11T08:39:30.746Z,3804.00
2023-02-11T08:40:35.751Z,3712.00
2023-02-11T08:41:30.725Z,3672.00
2023-02-11T08:42:30.712Z,3640.00
2023-02-11T08:43:30.730Z,3600.00
2023-02-11T08:44:30.689Z,3568.00
2023-02-11T08:45:30.716Z,3564.00
2023-02-11T08:46:30.748Z,3592.00
2023-02-11T08:47:30.655Z,3692.00
2023-02-11T08:48:30.656Z,3728.00
2023-02-11T08:49:30.634Z,3704.00
2023-02-11T08:50:30.693Z,3692.00
2023-02-11T08:51:35.635Z,3664.00
2023-02-11T08:52:30.604Z,3636.00
2023-02-11T08:53:30.616Z,3692.00
2023-02-11T08:54:30.573Z,3832.00
2023-02-11T08:55:30.575Z,3944.00
2023-02-11T08:56:30.560Z,3968.00
2023-02-11T08:57:30.564Z,3988.00
2023-02-11T08:58:30.543Z,4104.00
2023-02-11T08:59:30.558Z,4004.00
2023-02-11T09:00:30.506Z,4156.00
2023-02-11T09:01:30.586Z,4288.00
2023-02-11T09:02:35.551Z,4404.00
2023-02-11T09:03:30.483Z,4408.00
2023-02-11T09:04:30.465Z,4428.00
2023-02-11T09:05:30.458Z,4612.00
2023-02-11T09:06:30.440Z,5160.00
2023-02-11T09:07:30.441Z,6180.00
2023-02-11T09:08:30.424Z,6268.00
2023-02-11T09:09:30.408Z,7044.00
2023-02-11T09:10:30.392Z,7348.00
2023-02-11T09:11:30.387Z,7084.00
2023-02-11T09:12:30.372Z,6404.00
2023-02-11T09:13:35.392Z,6096.00
2023-02-11T09:14:30.351Z,5272.00
2023-02-11T09:15:30.361Z,4748.00
2023-02-11T09:16:30.362Z,4548.00
2023-02-11T09:17:30.314Z,4612.00
2023-02-11T09:18:30.332Z,4556.00
2023-02-11T09:19:30.288Z,4964.00
2023-02-11T09:20:30.305Z,5144.00
2023-02-11T09:21:30.283Z,5132.00
2023-02-11T09:22:30.350Z,5596.00
2023-02-11T09:23:30.274Z,6292.00
2023-02-11T09:24:35.273Z,7044.00
2023-02-11T09:25:30.223Z,6864.00
2023-02-11T09:26:30.284Z,7324.00
2023-02-11T09:27:30.238Z,7128.00
2023-02-11T09:28:30.277Z,7452.00
2023-02-11T09:29:30.239Z,7976.00
2023-02-11T09:30:30.353Z,7940.00
2023-02-11T09:31:30.335Z,7720.00
2023-02-11T09:32:30.144Z,7984.00
2023-02-11T09:33:30.143Z,7556.00
2023-02-11T09:34:30.183Z,7100.00
2023-02-11T09:35:35.135Z,7972.00
2023-02-11T09:36:30.109Z,9128.00
2023-02-11T09:37:30.090Z,8988.00
2023-02-11T09:38:30.080Z,9836.00
2023-02-11T09:39:30.122Z,9984.00
2023-02-11T09:40:30.054Z,10728.00
2023-02-11T09:41:30.052Z,10676.00
2023-02-11T09:42:30.047Z,10772.00
2023-02-11T09:43:30.021Z,10532.00
2023-02-11T09:44:30.026Z,10748.00
2023-02-11T09:45:29.997Z,11004.00
2023-02-11T09:46:35.097Z,11256.00
2023-02-11T09:47:29.978Z,11552.00
2023-02-11T09:48:29.977Z,11408.00
2023-02-11T09:49:29.962Z,11396.00
2023-02-11T09:50:29.945Z,10440.00
2023-02-11T09:51:29.991Z,11268.00
2023-02-11T09:52:29.925Z,11224.00
2023-02-11T09:53:29.933Z,12116.00
2023-02-11T09:54:29.918Z,11948.00
2023-02-11T09:55:29.888Z,11452.00
2023-02-11T09:56:29.893Z,11484.00
2023-02-11T09:57:34.887Z,11612.00
2023-02-11T09:58:29.854Z,11896.00
2023-02-11T09:59:29.910Z,11040.00
2023-02-11T10:00:29.876Z,11104.00
2023-02-11T10:01:30.890Z,9940.00
2023-02-11T10:02:29.874Z,9292.00
2023-02-11T10:03:29.807Z,8520.00
2023-02-11T10:04:29.894Z,8228.00
2023-02-11T10:05:29.784Z,8392.00
2023-02-11T10:06:29.825Z,8708.00
2023-02-11T10:07:29.752Z,8860.00
2023-02-11T10:08:34.765Z,8844.00
2023-02-11T10:09:29.741Z,8988.00
2023-02-11T10:10:29.732Z,9464.00
2023-02-11T10:11:31.929Z,9596.00
2023-02-11T10:12:29.696Z,10036.00
2023-02-11T10:13:29.697Z,9136.00
2023-02-11T10:14:29.724Z,9252.00
2023-02-11T10:15:29.714Z,9016.00
2023-02-11T10:16:29.662Z,8940.00
2023-02-11T10:17:29.637Z,9004.00
2023-02-11T10:18:29.651Z,8936.00
2023-02-11T10:19:34.638Z,8940.00
2023-02-11T10:20:29.626Z,8972.00
2023-02-11T10:21:29.613Z,9028.00
2023-02-11T10:22:29.590Z,9156.00
2023-02-11T10:23:29.628Z,9296.00
2023-02-11T10:24:29.567Z,9800.00
2023-02-11T10:25:29.570Z,9352.00
2023-02-11T10:26:29.549Z,9320.00
2023-02-11T10:27:29.528Z,9668.00
2023-02-11T10:28:29.643Z,9460.00
2023-02-11T10:29:29.502Z,9572.00
2023-02-11T10:30:34.564Z,9668.00
2023-02-11T10:31:29.589Z,9620.00
2023-02-11T10:32:29.473Z,9748.00
2023-02-11T10:33:29.456Z,10184.00
2023-02-11T10:34:29.471Z,9900.00
2023-02-11T10:35:29.445Z,9856.00
2023-02-11T10:36:29.425Z,9884.00
2023-02-11T10:37:29.415Z,9860.00
2023-02-11T10:38:29.404Z,9784.00
2023-02-11T10:39:29.416Z,9668.00
2023-02-11T10:40:29.394Z,9584.00
2023-02-11T10:41:34.402Z,9632.00
2023-02-11T10:42:29.360Z,9732.00
2023-02-11T10:43:29.345Z,9744.00
2023-02-11T10:44:29.343Z,9660.00
2023-02-11T10:45:29.341Z,9640.00
2023-02-11T10:46:29.361Z,9468.00
2023-02-11T10:47:29.312Z,9356.00
2023-02-11T10:48:29.288Z,9208.00
2023-02-11T10:49:29.304Z,8996.00
2023-02-11T10:50:29.291Z,8868.00
2023-02-11T10:51:29.266Z,8444.00
2023-02-11T10:52:34.267Z,8168.00
2023-02-11T10:53:29.236Z,8068.00
2023-02-11T10:54:29.222Z,8064.00
2023-02-11T10:55:29.214Z,8196.00
2023-02-11T10:56:29.505Z,8236.00
2023-02-11T10:57:29.187Z,8444.00
2023-02-11T10:58:29.192Z,8316.00
2023-02-11T10:59:29.171Z,8032.00
2023-02-11T11:00:29.157Z,7748.00
2023-02-11T11:01:29.164Z,7812.00
2023-02-11T11:02:29.136Z,7888.00
2023-02-11T11:03:34.143Z,7712.00
2023-02-11T11:04:29.141Z,7756.00
2023-02-11T11:05:29.154Z,7740.00
2023-02-11T11:06:29.147Z,8276.00
2023-02-11T11:07:29.085Z,8896.00
2023-02-11T11:08:29.069Z,9556.00
2023-02-11T11:09:29.057Z,9836.00
2023-02-11T11:10:29.056Z,9468.00
2023-02-11T11:11:29.050Z,9452.00
2023-02-11T11:12:29.039Z,9748.00
2023-02-11T11:13:29.037Z,9796.00
2023-02-11T11:14:34.029Z,9724.00
2023-02-11T11:15:28.992Z,9580.00
2023-02-11T11:16:29.115Z,8872.00
2023-02-11T11:17:28.964Z,8760.00
2023-02-11T11:18:28.953Z,8360.00
2023-02-11T11:19:28.942Z,8132.00
2023-02-11T11:20:28.934Z,8768.00
2023-02-11T11:21:28.940Z,8928.00
2023-02-11T11:22:28.929Z,8324.00
2023-02-11T11:23:28.900Z,7668.00
2023-02-11T11:24:28.890Z,7532.00
2023-02-11T11:25:33.897Z,7556.00
2023-02-11T11:26:28.879Z,9004.00
2023-02-11T11:27:28.850Z,11980.00
2023-02-11T11:28:28.874Z,12716.00
2023-02-11T11:29:28.828Z,12416.00
2023-02-11T11:30:28.873Z,14280.00
2023-02-11T11:31:28.984Z,14300.00
2023-02-11T11:32:28.794Z,16160.00
2023-02-11T11:33:28.778Z,16192.00
2023-02-11T11:34:28.772Z,13192.00
2023-02-11T11:35:28.757Z,11924.00
2023-02-11T11:36:33.780Z,13208.00
2023-02-11T11:37:28.741Z,12668.00
2023-02-11T11:38:28.749Z,12108.00
2023-02-11T11:39:28.709Z,10212.00
2023-02-11T11:40:28.709Z,9560.00
2023-02-11T11:41:28.697Z,9572.00
2023-02-11T11:42:28.697Z,9072.00
2023-02-11T11:43:28.668Z,8608.00
2023-02-11T11:44:28.665Z,8092.00
2023-02-11T11:45:28.648Z,8068.00
2023-02-11T11:46:28.684Z,8348.00
2023-02-11T11:47:33.639Z,9032.00
2023-02-11T11:48:28.607Z,9424.00
2023-02-11T11:49:28.613Z,9336.00
2023-02-11T11:50:28.602Z,9572.00
2023-02-11T11:51:28.649Z,9644.00
2023-02-11T11:52:28.563Z,9860.00
2023-02-11T11:53:28.549Z,10064.00
2023-02-11T11:54:28.555Z,9960.00
2023-02-11T11:55:28.535Z,9540.00
2023-02-11T11:56:28.519Z,8804.00
2023-02-11T11:57:28.525Z,8748.00
2023-02-11T11:58:33.515Z,8236.00
2023-02-11T11:59:28.498Z,8096.00
2023-02-11T12:00:28.469Z,8292.00
2023-02-11T12:01:28.472Z,8164.00
2023-02-11T12:02:28.460Z,8132.00
2023-02-11T12:03:28.471Z,7976.00
2023-02-11T12:04:28.427Z,7852.00
2023-02-11T12:05:28.423Z,7852.00
2023-02-11T12:06:28.409Z,7360.00
2023-02-11T12:07:28.417Z,7300.00
2023-02-11T12:08:28.376Z,7144.00
2023-02-11T12:09:33.404Z,8072.00
2023-02-11T12:10:28.385Z,8564.00
2023-02-11T12:11:28.353Z,8676.00
2023-02-11T12:12:28.354Z,8264.00
2023-02-11T12:13:28.349Z,8572.00
2023-02-11T12:14:28.314Z,8384.00
2023-02-11T12:15:28.314Z,7808.00
2023-02-11T12:16:28.354Z,6656.00
2023-02-11T12:17:28.284Z,7192.00
2023-02-11T12:18:28.266Z,8012.00
2023-02-11T12:19:28.248Z,8192.00
2023-02-11T12:20:33.264Z,8124.00
2023-02-11T12:21:28.243Z,8364.00
2023-02-11T12:22:28.227Z,9392.00
2023-02-11T12:23:28.213Z,9396.00
2023-02-11T12:24:28.196Z,9488.00
2023-02-11T12:25:28.196Z,9152.00
2023-02-11T12:26:28.198Z,8900.00
2023-02-11T12:27:28.163Z,9172.00
2023-02-11T12:28:28.179Z,9236.00
2023-02-11T12:29:28.142Z,8408.00
2023-02-11T12:30:28.145Z,8236.00
2023-02-11T12:31:33.179Z,8792.00
2023-02-11T12:32:28.112Z,9200.00
2023-02-11T12:33:28.088Z,9324.00
2023-02-11T12:34:28.092Z,9772.00
2023-02-11T12:35:28.077Z,10684.00
2023-02-11T12:36:28.153Z,11024.00
2023-02-11T12:37:28.056Z,10544.00
2023-02-11T12:38:28.037Z,10784.00
2023-02-11T12:39:28.022Z,10308.00
2023-02-11T12:40:28.015Z,9968.00
2023-02-11T12:41:28.063Z,8988.00
2023-02-11T12:42:33.022Z,8148.00
2023-02-11T12:43:28.123Z,7748.00
2023-02-11T12:44:27.965Z,7500.00
2023-02-11T12:45:28.021Z,7160.00
2023-02-11T12:46:27.953Z,6696.00
2023-02-11T12:47:27.946Z,6584.00
2023-02-11T12:48:27.919Z,6576.00
2023-02-11T12:49:27.913Z,6864.00
2023-02-11T12:50:27.899Z,6932.00
2023-02-11T12:51:27.884Z,6820.00
2023-02-11T12:52:27.884Z,6680.00
2023-02-11T12:53:32.884Z,6384.00
2023-02-11T12:54:27.854Z,6112.00
2023-02-11T12:55:27.839Z,5704.00
2023-02-11T12:56:27.835Z,5376.00
2023-02-11T12:57:27.858Z,5460.00
2023-02-11T12:58:42.941Z,5756.00
2023-02-11T12:59:28.798Z,5876.00
2023-02-11T13:00:27.784Z,5648.00
2023-02-11T13:01:27.920Z,5328.00
2023-02-11T13:02:27.797Z,5320.00
2023-02-11T13:03:27.771Z,5376.00
2023-02-11T13:04:32.759Z,5272.00
2023-02-11T13:05:27.729Z,5172.00
2023-02-11T13:06:27.747Z,5104.00
2023-02-11T13:07:27.713Z,5192.00
2023-02-11T13:08:27.711Z,5128.00
2023-02-11T13:09:27.683Z,4888.00
2023-02-11T13:10:27.669Z,4848.00
2023-02-11T13:11:27.664Z,4828.00
2023-02-11T13:12:27.646Z,4732.00
2023-02-11T13:13:27.671Z,4788.00
2023-02-11T13:14:27.624Z,4792.00
2023-02-11T13:15:32.637Z,4720.00
2023-02-11T13:16:27.681Z,4704.00
2023-02-11T13:17:27.595Z,4716.00
2023-02-11T13:18:27.593Z,4536.00
2023-02-11T13:19:27.583Z,4416.00
2023-02-11T13:20:27.566Z,4536.00
2023-02-11T13:21:27.548Z,4724.00
2023-02-11T13:22:27.537Z,4740.00
2023-02-11T13:23:29.408Z,5012.00
2023-02-11T13:24:27.519Z,5264.00
2023-02-11T13:25:27.502Z,5352.00
2023-02-11T13:26:32.566Z,4896.00
2023-02-11T13:27:27.478Z,4596.00
2023-02-11T13:28:27.547Z,4484.00
2023-02-11T13:29:27.499Z,4356.00
2023-02-11T13:30:27.496Z,4340.00
2023-02-11T13:31:27.609Z,4364.00
2023-02-11T13:32:27.426Z,4432.00
2023-02-11T13:33:27.423Z,4680.00
2023-02-11T13:34:27.419Z,4868.00
2023-02-11T13:35:27.392Z,4968.00
2023-02-11T13:36:27.396Z,4960.00
2023-02-11T13:37:32.399Z,4976.00
2023-02-11T13:38:27.370Z,5056.00
2023-02-11T13:39:27.356Z,4948.00
2023-02-11T13:40:27.331Z,4500.00
2023-02-11T13:41:27.334Z,4100.00
2023-02-11T13:42:27.324Z,3820.00
2023-02-11T13:43:27.309Z,3592.00
2023-02-11T13:44:27.286Z,3428.00
2023-02-11T13:45:27.306Z,3144.00
2023-02-11T13:46:27.314Z,2916.00
2023-02-11T13:47:27.251Z,2932.00
2023-02-11T13:48:32.275Z,3028.00
2023-02-11T13:49:27.231Z,3044.00
2023-02-11T13:50:27.219Z,2968.00
2023-02-11T13:51:27.209Z,3032.00
2023-02-11T13:52:27.197Z,3184.00
2023-02-11T13:53:27.197Z,3476.00
2023-02-11T13:54:27.174Z,3880.00
2023-02-11T13:55:27.160Z,4160.00
2023-02-11T13:56:27.151Z,3940.00
2023-02-11T13:57:27.146Z,3252.00
2023-02-11T13:58:27.146Z,2516.00
2023-02-11T13:59:32.136Z,2152.00
2023-02-11T14:00:27.104Z,2100.00
2023-02-11T14:01:27.183Z,2112.00
2023-02-11T14:02:27.138Z,2128.00
2023-02-11T14:03:27.084Z,2072.00
2023-02-11T14:04:27.059Z,2072.00
2023-02-11T14:05:27.048Z,2040.00
2023-02-11T14:06:27.044Z,1920.00
2023-02-11T14:07:27.025Z,1864.00
2023-02-11T14:08:27.022Z,1812.00
2023-02-11T14:09:27.005Z,1844.00
2023-02-11T14:10:32.018Z,1808.00
2023-02-11T14:11:26.983Z,1808.00
2023-02-11T14:12:26.969Z,1952.00
2023-02-11T14:13:26.970Z,2136.00
2023-02-11T14:14:26.953Z,2304.00
2023-02-11T14:15:26.937Z,2316.00
2023-02-11T14:16:37.408Z,2296.00
2023-02-11T14:17:28.004Z,2268.00
2023-02-11T14:18:26.907Z,2292.00
2023-02-11T14:19:26.937Z,2328.00
2023-02-11T14:20:26.887Z,2356.00
2023-02-11T14:21:31.893Z,2276.00
2023-02-11T14:22:26.855Z,2336.00
2023-02-11T14:23:26.848Z,2224.00
2023-02-11T14:24:26.847Z,1956.00
2023-02-11T14:25:26.825Z,1852.00
2023-02-11T14:26:26.820Z,1844.00
2023-02-11T14:27:26.802Z,1848.00
2023-02-11T14:28:26.950Z,1784.00
2023-02-11T14:29:26.790Z,1672.00
2023-02-11T14:30:26.764Z,1592.00
2023-02-11T14:31:26.956Z,1572.00
2023-02-11T14:32:31.781Z,1528.00
2023-02-11T14:33:26.737Z,1492.00
2023-02-11T14:34:26.732Z,1444.00
2023-02-11T14:35:26.710Z,1372.00
2023-02-11T14:36:26.699Z,1312.00
2023-02-11T14:37:26.688Z,1288.00
2023-02-11T14:38:26.679Z,1300.00
2023-02-11T14:39:26.704Z,1292.00
2023-02-11T14:40:26.684Z,1316.00
2023-02-11T14:41:26.697Z,1444.00
2023-02-11T14:42:26.674Z,1520.00
2023-02-11T14:43:31.653Z,1548.00
2023-02-11T14:44:26.629Z,1480.00
2023-02-11T14:45:26.600Z,1332.00
2023-02-11T14:46:26.689Z,1248.00
2023-02-11T14:47:26.909Z,1140.00
2023-02-11T14:48:26.601Z,1088.00
2023-02-11T14:49:26.569Z,1068.00
2023-02-11T14:50:26.545Z,1020.00
2023-02-11T14:51:26.531Z,984.00
2023-02-11T14:52:26.521Z,936.00
2023-02-11T14:53:26.534Z,920.00
2023-02-11T14:54:31.526Z,900.00
2023-02-11T14:55:26.498Z,916.00
2023-02-11T14:56:26.550Z,928.00
2023-02-11T14:57:26.467Z,900.00
2023-02-11T14:58:26.458Z,848.00
2023-02-11T14:59:26.453Z,816.00
2023-02-11T15:00:26.506Z,776.00
2023-02-11T15:01:26.433Z,732.00
2023-02-11T15:02:26.499Z,692.00
2023-02-11T15:03:26.397Z,640.00
2023-02-11T15:04:26.422Z,612.00
2023-02-11T15:05:31.401Z,620.00
2023-02-11T15:06:26.358Z,632.00
2023-02-11T15:07:26.351Z,620.00
2023-02-11T15:08:26.337Z,592.00
2023-02-11T15:09:26.376Z,572.00
2023-02-11T15:10:26.335Z,548.00
2023-02-11T15:11:26.309Z,528.00
2023-02-11T15:12:26.295Z,528.00
2023-02-11T15:13:26.287Z,536.00
2023-02-11T15:14:26.276Z,548.00
2023-02-11T15:15:26.257Z,564.00
2023-02-11T15:16:31.268Z,580.00
2023-02-11T15:17:26.234Z,588.00
2023-02-11T15:18:26.245Z,580.00
2023-02-11T15:19:26.225Z,568.00
2023-02-11T15:20:26.227Z,556.00
2023-02-11T15:21:26.190Z,544.00
2023-02-11T15:22:26.176Z,528.00
2023-02-11T15:23:26.184Z,500.00
2023-02-11T15:24:26.188Z,480.00
2023-02-11T15:25:26.145Z,476.00
2023-02-11T15:26:26.196Z,444.00
2023-02-11T15:27:31.148Z,408.00
2023-02-11T15:28:26.277Z,404.00
2023-02-11T15:29:26.140Z,460.00
2023-02-11T15:30:26.095Z,484.00
2023-02-11T15:31:26.293Z,484.00
2023-02-11T15:32:26.186Z,492.00
2023-02-11T15:33:26.085Z,492.00
2023-02-11T15:34:26.056Z,496.00
2023-02-11T15:35:26.059Z,508.00
2023-02-11T15:36:26.047Z,516.00
2023-02-11T15:37:26.018Z,540.00
2023-02-11T15:38:31.026Z,540.00
2023-02-11T15:39:25.987Z,524.00
2023-02-11T15:40:25.984Z,516.00
2023-02-11T15:41:25.964Z,512.00
2023-02-11T15:42:25.955Z,504.00
2023-02-11T15:43:25.947Z,484.00
2023-02-11T15:44:25.928Z,448.00
2023-02-11T15:45:25.953Z,400.00
2023-02-11T15:46:25.946Z,372.00
2023-02-11T15:47:25.911Z,360.00
2023-02-11T15:48:25.885Z,352.00
2023-02-11T15:49:30.895Z,356.00
2023-02-11T15:50:25.878Z,352.00
2023-02-11T15:51:25.851Z,344.00
2023-02-11T15:52:25.863Z,328.00
2023-02-11T15:53:25.832Z,312.00
2023-02-11T15:54:25.875Z,300.00
2023-02-11T15:55:25.843Z,280.00
2023-02-11T15:56:25.854Z,260.00
2023-02-11T15:57:25.788Z,248.00
2023-02-11T15:58:25.771Z,232.00
2023-02-11T15:59:25.780Z,224.00
2023-02-11T16:00:30.781Z,224.00
2023-02-11T16:01:25.781Z,212.00
2023-02-11T16:02:25.723Z,200.00
2023-02-11T16:03:25.714Z,192.00
2023-02-11T16:04:25.773Z,200.00
2023-02-11T16:05:25.709Z,204.00
2023-02-11T16:06:25.691Z,204.00
2023-02-11T16:07:25.669Z,188.00
2023-02-11T16:08:25.687Z,172.00
2023-02-11T16:09:25.647Z,160.00
2023-02-11T16:10:25.652Z,152.00
2023-02-11T16:11:30.648Z,140.00
2023-02-11T16:12:25.623Z,140.00
2023-02-11T16:13:25.603Z,136.00
2023-02-11T16:14:25.608Z,132.00
2023-02-11T16:15:25.595Z,132.00
2023-02-11T16:16:25.607Z,128.00
2023-02-11T16:17:25.556Z,128.00
2023-02-11T16:18:36.795Z,132.00
2023-02-11T16:19:26.547Z,128.00
2023-02-11T16:20:25.574Z,128.00
2023-02-11T16:21:25.552Z,124.00
2023-02-11T16:22:30.525Z,116.00
2023-02-11T16:23:25.495Z,116.00
2023-02-11T16:24:25.497Z,108.00
2023-02-11T16:25:25.480Z,108.00
2023-02-11T16:26:25.452Z,100.00
2023-02-11T16:27:25.485Z,92.00
2023-02-11T16:28:25.522Z,88.00
2023-02-11T16:29:25.433Z,76.00
2023-02-11T16:30:25.475Z,72.00
2023-02-11T16:31:25.569Z,68.00
2023-02-11T16:32:25.393Z,64.00
2023-02-11T16:33:30.405Z,64.00
2023-02-11T16:34:25.372Z,60.00
2023-02-11T16:35:25.350Z,56.00
2023-02-11T16:36:25.493Z,48.00
2023-02-11T16:37:25.331Z,44.00
2023-02-11T16:38:25.328Z,40.00
2023-02-11T16:39:25.319Z,36.00
2023-02-11T16:40:25.324Z,36.00
2023-02-11T16:41:25.298Z,32.00
2023-02-11T16:42:25.270Z,28.00
2023-02-11T16:43:25.263Z,24.00
2023-02-11T16:44:31.015Z,20.00
2023-02-11T16:45:25.238Z,20.00
2023-02-11T16:46:25.279Z,16.00
2023-02-11T16:47:25.217Z,16.00
2023-02-11T16:48:25.206Z,12.00
2023-02-11T16:49:25.221Z,12.00
2023-02-11T16:50:25.197Z,8.00
2023-02-11T16:51:25.181Z,8.00
2023-02-11T16:52:25.181Z,4.00
2023-02-11T16:53:25.150Z,8.00
2023-02-11T16:54:25.139Z,4.00
2023-02-11T16:55:30.168Z,8.00
2023-02-11T16:56:25.184Z,4.00
2023-02-11T16:57:26.921Z,4.00
2023-02-11T16:58:25.265Z,4.00
2023-02-11T16:59:25.083Z,0.00
2023-02-11T17:00:25.080Z,4.00
2023-02-11T17:01:25.149Z,0.00
2023-02-11T17:02:25.045Z,0.00
2023-02-11T17:03:25.039Z,4.00
2023-02-11T17:04:25.109Z,0.00
2023-02-11T17:05:25.020Z,0.00
2023-02-11T17:06:30.047Z,0.00
2023-02-11T17:07:25.002Z,0.00
2023-02-11T17:08:24.982Z,0.00
2023-02-11T17:09:24.964Z,0.00
2023-02-11T17:10:24.957Z,0.00
2023-02-11T17:11:24.983Z,0.00
2023-02-11T17:12:24.938Z,0.00
2023-02-11T17:13:24.928Z,0.00
2023-02-11T17:14:24.911Z,0.00
2023-02-11T17:15:24.905Z,0.00
2023-02-11T17:16:25.054Z,0.00
2023-02-11T17:17:29.907Z,0.00
2023-02-11T17:18:24.862Z,0.00
2023-02-11T17:19:24.849Z,0.00
2023-02-11T17:20:24.853Z,0.00
2023-02-11T17:21:24.867Z,0.00